Warning: Invalid argument supplied for foreach() in /server/czul.ca/includes/prompts.inc.php on line 9

Warning: Invalid argument supplied for foreach() in /server/czul.ca/includes/prompts.inc.php on line 9

Warning: Invalid argument supplied for foreach() in /server/czul.ca/includes/prompts.inc.php on line 9
CZUL - FIR virtuelle de Montréal

CYYT

St. John's International Airport

{{ICAO_CODE}} CYYT
{{IATA_CODE}} YYT
{{NAME}} St. John's International Airport
{{LOCATION}} St. John's, Newfoundland-and-Labrador, CA
{{ELEVATION}} 461 {{FEET}} / 140.5 {{METERS}}
{{LATITUDE}} 47.61859894
{{LONGITUDE}} -52.75189972
{{METAR}} CYYT 232300Z 04004KT 15SM SCT260 14/12 A3015 RMK CI4 SLP213
{{EXTRA_INFO}} {{DISPLAY_CHARTS_AND_CFS}}
{{DISPLAY_NOTAMS}}
{{RUNWAY}} {{LENGTH}} {{WIDTH}} {{SURFACE}} {{ELEVATION}}
02 5028 ft 100 ft ASP 445 ft
11 8502 ft 200 ft ASP 458 ft
16 7005 ft 200 ft ASP 444 ft
20 5028 ft 100 ft ASP 440 ft
29 8502 ft 200 ft ASP 437 ft
34 7005 ft 200 ft ASP 431 ft